createdAt,value
2023-04-04T00:02:48.023Z,102819.53
2023-04-04T00:07:52.622Z,102808.03
2023-04-04T00:12:55.848Z,102808.16
2023-04-04T00:17:58.640Z,102796.34
2023-04-04T00:23:03.160Z,102788.84
2023-04-04T00:28:06.499Z,102798.97
2023-04-04T00:33:09.378Z,102785.84
2023-04-04T00:38:13.563Z,102780.00
2023-04-04T00:43:16.958Z,102784.94
2023-04-04T00:48:21.332Z,102778.84
2023-04-04T00:53:25.982Z,102782.50
2023-04-04T00:58:28.890Z,102778.03
2023-04-04T01:03:32.104Z,102776.25
2023-04-04T01:08:38.631Z,102774.72
2023-04-04T01:13:43.121Z,102775.16
2023-04-04T01:18:51.519Z,102759.75
2023-04-04T01:24:01.229Z,102751.34
2023-04-04T01:29:31.566Z,102754.09
2023-04-04T01:34:44.275Z,102733.38
2023-04-04T01:39:50.669Z,102733.22
2023-04-04T01:44:57.800Z,102722.00
2023-04-04T01:50:08.963Z,102720.53
2023-04-04T01:55:12.420Z,102724.06
2023-04-04T02:00:17.195Z,102718.91
2023-04-04T02:05:20.050Z,102716.16
2023-04-04T02:10:23.046Z,102713.22
2023-04-04T02:15:27.722Z,102707.56
2023-04-04T02:20:31.003Z,102703.88
2023-04-04T02:25:33.837Z,102710.59
2023-04-04T02:30:38.194Z,102709.16
2023-04-04T02:35:41.354Z,102713.06
2023-04-04T02:40:46.711Z,102702.94
2023-04-04T02:45:51.606Z,102702.97
2023-04-04T02:51:00.020Z,102701.84
2023-04-04T02:56:03.695Z,102697.25
2023-04-04T03:01:08.232Z,102706.47
2023-04-04T03:06:14.844Z,102702.22
2023-04-04T03:11:18.883Z,102706.44
2023-04-04T03:16:24.136Z,102700.22
2023-04-04T03:21:28.509Z,102700.03
2023-04-04T03:26:33.508Z,102698.75
2023-04-04T03:31:37.617Z,102693.38
2023-04-04T03:36:40.871Z,102686.41
2023-04-04T03:41:43.612Z,102694.09
2023-04-04T03:46:47.731Z,102689.34
2023-04-04T03:51:50.602Z,102688.44
2023-04-04T03:56:53.545Z,102689.13
2023-04-04T04:01:57.697Z,102680.53
2023-04-04T04:07:02.245Z,102679.44
2023-04-04T04:12:05.424Z,102681.84
2023-04-04T04:17:09.667Z,102674.69
2023-04-04T04:22:12.538Z,102680.91
2023-04-04T04:27:15.407Z,102679.66
2023-04-04T04:32:20.917Z,102683.50
2023-04-04T04:37:28.521Z,102682.00
2023-04-04T04:42:33.586Z,102675.78
2023-04-04T04:47:39.803Z,102676.88
2023-04-04T04:52:46.107Z,102679.81
2023-04-04T04:57:50.184Z,102682.00
2023-04-04T05:03:00.575Z,102686.97
2023-04-04T05:08:12.983Z,102687.53
2023-04-04T05:13:27.555Z,102695.25
2023-04-04T05:18:32.115Z,102687.69
2023-04-04T05:23:35.652Z,102687.69
2023-04-04T05:28:38.592Z,102685.47
2023-04-04T05:33:45.399Z,102691.78
2023-04-04T05:38:53.937Z,102677.75
2023-04-04T05:44:00.517Z,102683.56
2023-04-04T05:49:05.859Z,102687.34
2023-04-04T05:54:10.503Z,102685.00
2023-04-04T05:59:21.353Z,102690.06
2023-04-04T06:04:31.793Z,102680.78
2023-04-04T06:09:37.336Z,102681.66
2023-04-04T06:14:41.090Z,102671.22
2023-04-04T06:19:46.174Z,102663.81
2023-04-04T06:24:48.950Z,102660.72
2023-04-04T06:29:52.660Z,102673.03
2023-04-04T06:34:58.306Z,102672.22
2023-04-04T06:40:15.252Z,102659.91
2023-04-04T06:45:19.283Z,102656.84
2023-04-04T06:50:24.020Z,102645.50
2023-04-04T06:55:28.438Z,102655.34
2023-04-04T07:00:31.625Z,102647.34
2023-04-04T07:05:39.432Z,102651.81
2023-04-04T07:10:42.702Z,102645.06
2023-04-04T07:15:49.158Z,102649.25
2023-04-04T07:20:53.322Z,102656.00
2023-04-04T07:25:56.160Z,102637.41
2023-04-04T07:31:01.849Z,102633.47
2023-04-04T07:36:06.460Z,102630.50
2023-04-04T07:41:09.793Z,102635.88
2023-04-04T07:46:12.646Z,102635.47
2023-04-04T07:51:16.719Z,102641.06
2023-04-04T07:56:19.513Z,102642.66
2023-04-04T08:01:22.369Z,102653.25
2023-04-04T08:06:27.189Z,102650.38
2023-04-04T08:11:29.934Z,102652.63
2023-04-04T08:16:33.259Z,102640.81
2023-04-04T08:21:37.454Z,102643.13
2023-04-04T08:26:40.223Z,102637.97
2023-04-04T08:31:43.278Z,102643.28
2023-04-04T08:36:47.462Z,102625.44
2023-04-04T08:41:58.707Z,102631.91
2023-04-04T08:47:05.206Z,102634.63
2023-04-04T08:52:12.610Z,102630.97
2023-04-04T08:57:15.650Z,102632.22
2023-04-04T09:02:25.258Z,102640.34
2023-04-04T09:07:31.053Z,102632.72
2023-04-04T09:12:37.267Z,102624.84
2023-04-04T09:17:40.686Z,102620.19
2023-04-04T09:22:47.280Z,102627.22
2023-04-04T09:27:50.082Z,102618.56
2023-04-04T09:32:54.153Z,102612.63
2023-04-04T09:37:58.720Z,102617.50
2023-04-04T09:43:02.429Z,102603.03
2023-04-04T09:48:07.599Z,102606.56
2023-04-04T09:53:18.112Z,102596.81
2023-04-04T09:58:25.672Z,102601.44
2023-04-04T10:03:29.584Z,102600.28
2023-04-04T10:08:34.527Z,102586.97
2023-04-04T10:13:40.980Z,102581.97
2023-04-04T10:18:44.818Z,102578.91
2023-04-04T10:23:50.558Z,102581.31
2023-04-04T10:28:53.376Z,102584.56
2023-04-04T10:34:08.305Z,102584.78
2023-04-04T10:39:16.121Z,102583.03
2023-04-04T10:44:24.625Z,102576.50
2023-04-04T10:49:29.708Z,102561.84
2023-04-04T10:54:34.707Z,102566.50
2023-04-04T10:59:57.486Z,102561.97
2023-04-04T11:05:12.188Z,102569.25
2023-04-04T11:10:22.074Z,102557.16
2023-04-04T11:15:26.246Z,102556.25
2023-04-04T11:20:34.466Z,102545.94
2023-04-04T11:25:40.635Z,102545.81
2023-04-04T11:30:48.594Z,102534.63
2023-04-04T11:35:51.546Z,102518.44
2023-04-04T11:40:56.516Z,102511.34
2023-04-04T11:46:08.963Z,102512.13
2023-04-04T11:51:12.757Z,102516.00
2023-04-04T11:56:17.979Z,102498.97
2023-04-04T12:01:21.659Z,102492.31
2023-04-04T12:06:25.438Z,102490.28
2023-04-04T12:11:32.093Z,102491.44
2023-04-04T12:16:37.174Z,102485.78
2023-04-04T12:21:40.267Z,102485.47
2023-04-04T12:26:47.023Z,102479.63
2023-04-04T12:31:51.270Z,102487.94
2023-04-04T12:36:54.587Z,102472.84
2023-04-04T12:42:03.565Z,102464.31
2023-04-04T12:47:08.375Z,102459.78
2023-04-04T12:52:20.547Z,102446.53
2023-04-04T12:57:26.623Z,102439.00
2023-04-04T13:02:31.546Z,102441.50
2023-04-04T13:07:42.827Z,102435.69
2023-04-04T13:12:58.627Z,102428.78
2023-04-04T13:18:14.924Z,102415.34
2023-04-04T13:23:18.076Z,102407.28
2023-04-04T13:28:22.199Z,102413.00
2023-04-04T13:33:25.060Z,102411.91
2023-04-04T13:38:28.217Z,102389.94
2023-04-04T13:43:32.419Z,102392.34
2023-04-04T13:48:35.205Z,102381.13
2023-04-04T13:53:37.941Z,102375.94
2023-04-04T13:58:42.076Z,102371.00
2023-04-04T14:03:45.074Z,102359.19
2023-04-04T14:08:47.890Z,102352.34
2023-04-04T14:13:52.218Z,102346.34
2023-04-04T14:18:54.988Z,102335.25
2023-04-04T14:23:57.793Z,102334.88
2023-04-04T14:29:01.912Z,102333.66
2023-04-04T14:34:05.699Z,102333.38
2023-04-04T14:39:08.479Z,102324.06
2023-04-04T14:44:13.053Z,102318.59
2023-04-04T14:49:15.895Z,102325.88
2023-04-04T14:54:18.640Z,102302.91
2023-04-04T14:59:22.967Z,102319.59
2023-04-04T15:04:26.225Z,102304.44
2023-04-04T15:09:30.165Z,102311.53
2023-04-04T15:14:34.334Z,102297.19
2023-04-04T15:19:37.213Z,102302.50
2023-04-04T15:24:40.138Z,102292.63
2023-04-04T15:29:44.763Z,102287.50
2023-04-04T15:34:47.530Z,102289.34
2023-04-04T15:39:53.328Z,102281.19
2023-04-04T15:44:58.587Z,102280.19
2023-04-04T15:50:02.192Z,102271.47
2023-04-04T15:55:07.809Z,102267.19
2023-04-04T16:00:14.064Z,102257.84
2023-04-04T16:05:17.062Z,102269.16
2023-04-04T16:10:19.862Z,102265.19
2023-04-04T16:15:24.086Z,102278.84
2023-04-04T16:20:27.633Z,102276.38
2023-04-04T16:25:30.558Z,102276.03
2023-04-04T16:30:35.316Z,102267.94
2023-04-04T16:35:39.767Z,102268.16
2023-04-04T16:40:44.056Z,102271.13
2023-04-04T16:45:48.438Z,102262.41
2023-04-04T16:50:51.355Z,102268.16
2023-04-04T16:56:07.036Z,102265.41
2023-04-04T17:01:14.091Z,102260.25
2023-04-04T17:06:22.476Z,102257.16
2023-04-04T17:11:26.386Z,102268.44
2023-04-04T17:16:30.718Z,102256.44
2023-04-04T17:21:33.601Z,102263.84
2023-04-04T17:26:36.594Z,102257.72
2023-04-04T17:31:43.358Z,102255.56
2023-04-04T17:36:46.346Z,102255.19
2023-04-04T17:41:49.783Z,102262.53
2023-04-04T17:46:55.336Z,102261.50
2023-04-04T17:51:58.278Z,102262.50
2023-04-04T18:22:56.230Z,102262.44
2023-04-04T18:28:28.843Z,102265.53
2023-04-04T18:54:14.880Z,102273.97
2023-04-04T18:59:18.635Z,102270.47
2023-04-04T19:04:23.155Z,102272.13
2023-04-04T19:09:29.021Z,102274.91
2023-04-04T19:14:31.894Z,102272.00
2023-04-04T19:19:34.710Z,102271.28
2023-04-04T19:24:40.254Z,102275.50
2023-04-04T19:29:43.300Z,102274.91
2023-04-04T19:34:47.847Z,102273.06
2023-04-04T19:39:52.056Z,102267.00
2023-04-04T19:44:54.995Z,102270.81
2023-04-04T19:49:58.387Z,102266.41
2023-04-04T19:55:03.482Z,102262.13
2023-04-04T20:00:13.416Z,102259.88
2023-04-04T20:06:02.474Z,102252.84
2023-04-04T20:11:30.202Z,102259.34
2023-04-04T20:16:33.317Z,102255.56
2023-04-04T20:21:36.775Z,102257.44
2023-04-04T20:26:55.607Z,102256.81
2023-04-04T20:32:00.194Z,102266.53
2023-04-04T20:37:08.634Z,102276.88
2023-04-04T20:42:34.059Z,102276.25
2023-04-04T20:47:44.839Z,102275.06
2023-04-04T20:52:51.088Z,102276.38
2023-04-04T20:57:57.867Z,102283.66
2023-04-04T21:03:02.681Z,102277.53
2023-04-04T21:08:29.756Z,102274.97
2023-04-04T21:13:37.182Z,102270.00
2023-04-04T21:18:41.499Z,102258.34
2023-04-04T21:23:47.068Z,102256.06
2023-04-04T21:28:51.320Z,102261.53
2023-04-04T21:33:56.015Z,102261.84
2023-04-04T21:39:00.656Z,102253.13
2023-04-04T21:44:06.563Z,102253.44
2023-04-04T21:49:10.227Z,102253.44
2023-04-04T21:54:14.323Z,102245.31
2023-04-04T21:59:18.568Z,102250.81
2023-04-04T22:04:21.500Z,102241.16
2023-04-04T22:09:25.836Z,102246.00
2023-04-04T22:14:30.005Z,102233.88
2023-04-04T22:19:43.163Z,102225.81
2023-04-04T22:24:45.983Z,102231.59
2023-04-04T22:29:50.054Z,102228.41
2023-04-04T22:34:53.160Z,102227.88
2023-04-04T22:39:56.018Z,102219.78
2023-04-04T22:45:00.107Z,102217.63
2023-04-04T22:50:04.837Z,102222.50
2023-04-04T22:55:08.201Z,102210.41
2023-04-04T23:00:14.707Z,102215.56
2023-04-04T23:05:19.039Z,102216.31
2023-04-04T23:10:22.480Z,102209.53
2023-04-04T23:15:27.751Z,102211.91
2023-04-04T23:20:32.140Z,102206.31
2023-04-04T23:25:34.989Z,102203.25
2023-04-04T23:30:39.704Z,102211.09
2023-04-04T23:35:50.026Z,102205.97
2023-04-04T23:40:53.877Z,102208.84
2023-04-04T23:46:00.265Z,102210.66
2023-04-04T23:51:04.108Z,102208.28
2023-04-04T23:56:07.604Z,102204.03
